Gowanda, NY

3:14 PM EDT on April 25, 2015 (GMT -0400)
Top of Zoar Valley | | Change Station
CLOSE
Current Station
Personal Weather Station
Location: Springville, NY
Elevation: 1427 ft
Nearby Weather Stations

Elev 1427 ft 42.50 °N, 78.78 °W | Updated 1 second ago

Clear
Clear
54.3 °F
Feels Like 54.3 °F
N
1.6
Wind Variable Wind from SW
Gusts 6.0 mph

Today
High -- | Low -- °F
--% Chance of Precip.
Yesterday
High -- | Low -- °F
Precip. -- in
6:19 AM 8:08 PM
Waxing Crescent, 48% visible
Pressure 29.88 in
Visibility 10.0 miles
Clouds Clear
Dew Point 34 °F
Humidity 47%
Rainfall 0.00 in
Snow Depth Not available.
UV 8 out of 12
Pollen 7.10 out of 12
Air Quality Not available.
Flu Activity Widespread
METAR KDKK 251853Z AUTO 02011KT 10SM CLR 08/M04 A2986 RMK AO2 SLP119 T00781039

More Conditions Fewer Conditions

Pressure 29.88 in
Visibility 10.0 miles
Clouds Clear
Dew Point 34 °F
Humidity 47%
Rainfall 0.00 in
Snow Depth Not available.
UV 8 out of 12
Pollen 7.10 out of 12
Air Quality Not available.
Flu Activity Widespread
METAR KDKK 251853Z AUTO 02011KT 10SM CLR 08/M04 A2986 RMK AO2 SLP119 T00781039

More Conditions Fewer Conditions

10-Day Weather Forecast

Almanac

Astronomy

Apr. 25, 2015 Rise Set
Actual Time
Civil Twilight
Nautical Twilight
Astronomical Twilight
Moon
Length of Visible Light
Length of Day
Tomorrow will be .
, % of the Moon is Illuminated

Today's Extremes

State Highs State Lows

Community

WunderPhotos

Upload Photos

1,816,779 photos uploaded!

WunderBlogs® & News

Nearby

Air Quality

  Air Quality AQ Index Pollutant
Not available.

Snow Depth

Station Depth Elevation

Earthquake Activity

City Distance Mag. Time & Date
Minimum magnitude displayed is 2.5.

Coastal Water Temperatures

Place Temperature

Stations

Nearby Weather Stations

Station Location Temp. Windchill Dew Point Humidity Wind Precip. Elev Updated Type